Time;durP1;ratioP1;P1;durP2;ratioP2;P2;SDS_P1;SDS_P2;PMS_P1;PMS_P2;Temp;Humidity;BMP_temperature;BMP_pressure;BME280_temperature;BME280_humidity;BME280_pressure;Samples;Min_cycle;Max_cycle;Signal;HPM_P1;HPM_P2
2021/12/02 00:02:08;;;;;;;0.70;0.60;;;6.40;99.90;;;;;;5053749;28;20449;-73
2021/12/02 00:04:37;;;;;;;0.70;0.50;;;6.50;99.90;;;;;;5053577;28;20640;-73
2021/12/02 00:07:04;;;;;;;0.70;0.47;;;6.40;99.90;;;;;;5068767;28;20457;-73
2021/12/02 00:09:30;;;;;;;0.70;0.60;;;6.40;99.90;;;;;;5053997;28;20400;-73
2021/12/02 00:11:56;;;;;;;0.70;0.60;;;6.40;99.90;;;;;;5053579;28;20417;-73
2021/12/02 00:14:24;;;;;;;0.70;0.50;;;6.40;99.90;;;;;;5053677;28;20397;-73
2021/12/02 00:17:13;;;;;;;0.70;0.50;;;6.40;99.90;;;;;;5052025;28;20539;-73
2021/12/02 00:22:27;;;;;;;0.70;0.50;;;6.40;99.90;;;;;;5052118;28;20400;-73
2021/12/02 00:24:58;;;;;;;0.70;0.50;;;6.40;99.90;;;;;;5051624;28;20405;-73
2021/12/02 00:27:25;;;;;;;0.73;0.67;;;6.40;99.90;;;;;;5052065;28;20394;-73
2021/12/02 00:29:55;;;;;;;0.70;0.60;;;6.40;99.90;;;;;;5051988;28;20804;-73
2021/12/02 00:32:24;;;;;;;0.70;0.50;;;6.30;99.90;;;;;;5053896;28;20722;-73
2021/12/02 00:34:50;;;;;;;0.70;0.50;;;6.30;99.90;;;;;;5054539;28;20922;-74
2021/12/02 00:37:16;;;;;;;0.70;0.50;;;6.30;99.90;;;;;;5054950;28;20400;-73
2021/12/02 00:39:41;;;;;;;0.70;0.50;;;6.30;99.90;;;;;;5054840;28;20412;-73
2021/12/02 00:42:09;;;;;;;0.70;0.50;;;6.30;99.90;;;;;;5054582;28;20625;-74
2021/12/02 00:44:37;;;;;;;0.70;0.50;;;6.30;99.90;;;;;;5053090;28;20171;-74
2021/12/02 00:47:03;;;;;;;1.77;1.67;;;6.30;99.90;;;;;;5054121;28;20472;-73
2021/12/02 00:49:30;;;;;;;0.70;0.50;;;6.30;99.90;;;;;;5069923;28;20441;-74
2021/12/02 00:51:58;;;;;;;0.70;0.50;;;6.30;99.90;;;;;;5054706;28;20875;-74
2021/12/02 00:54:26;;;;;;;0.70;0.50;;;6.30;99.90;;;;;;5054513;28;20398;-73
2021/12/02 00:56:52;;;;;;;0.70;0.47;;;6.30;99.90;;;;;;5052721;28;20452;-73
2021/12/02 00:59:20;;;;;;;0.70;0.50;;;6.30;99.90;;;;;;5054266;28;20777;-74
2021/12/02 01:01:48;;;;;;;0.83;0.83;;;6.20;99.90;;;;;;5053688;28;20417;-73
2021/12/02 01:04:17;;;;;;;1.23;1.13;;;6.20;99.90;;;;;;5056092;28;20409;-73
2021/12/02 01:06:42;;;;;;;0.70;0.60;;;6.20;99.90;;;;;;5057868;28;20851;-73
2021/12/02 01:09:10;;;;;;;0.90;0.50;;;6.20;99.90;;;;;;5058236;28;20433;-74
2021/12/02 01:11:37;;;;;;;0.70;0.50;;;6.20;99.90;;;;;;5057246;28;20187;-73
2021/12/02 01:14:04;;;;;;;0.70;0.60;;;6.10;99.90;;;;;;5056766;28;20439;-74
2021/12/02 01:16:29;;;;;;;1.00;1.00;;;6.10;99.90;;;;;;5056526;28;20925;-73
2021/12/02 01:18:55;;;;;;;0.70;0.47;;;6.10;99.90;;;;;;5056515;28;20390;-73
2021/12/02 01:21:25;;;;;;;0.70;0.50;;;6.10;99.90;;;;;;5055213;28;20217;-73
2021/12/02 01:23:54;;;;;;;0.70;0.50;;;6.10;99.90;;;;;;5056390;28;20640;-73
2021/12/02 01:26:20;;;;;;;0.87;0.70;;;6.10;99.90;;;;;;5055965;28;20449;-73
2021/12/02 01:28:48;;;;;;;0.80;0.70;;;6.20;99.90;;;;;;5056723;28;20397;-73
2021/12/02 01:31:14;;;;;;;0.70;0.50;;;6.20;99.90;;;;;;5055938;28;20802;-73
2021/12/02 01:33:40;;;;;;;0.70;0.50;;;6.20;99.90;;;;;;5072013;28;20412;-73
2021/12/02 01:36:06;;;;;;;1.47;0.90;;;6.10;99.90;;;;;;5071402;28;20500;-73
2021/12/02 01:38:34;;;;;;;0.70;0.50;;;6.10;99.90;;;;;;5055194;28;20488;-73
2021/12/02 01:41:01;;;;;;;6.13;1.37;;;6.20;99.90;;;;;;5054968;28;20479;-73
2021/12/02 01:43:53;;;;;;;1.30;1.20;;;6.20;99.90;;;;;;5056212;28;20926;-73
2021/12/02 01:46:23;;;;;;;0.70;0.50;;;6.20;99.90;;;;;;5055534;28;20452;-72
2021/12/02 01:48:58;;;;;;;0.70;0.50;;;6.10;99.90;;;;;;5056193;28;20397;-72
2021/12/02 01:51:26;;;;;;;1.00;0.60;;;6.20;99.90;;;;;;5071246;28;20460;-73
2021/12/02 01:54:03;;;;;;;1.10;0.87;;;6.20;99.90;;;;;;5056969;28;20405;-72
2021/12/02 01:56:31;;;;;;;1.60;1.50;;;6.20;99.90;;;;;;5059739;28;20433;-73
2021/12/02 01:59:06;;;;;;;2.07;0.80;;;6.20;99.90;;;;;;5058197;28;20417;-72
2021/12/02 02:01:34;;;;;;;0.70;0.70;;;6.30;99.90;;;;;;5056892;28;20988;-72
2021/12/02 02:04:00;;;;;;;0.70;0.50;;;6.30;99.90;;;;;;5056677;28;20405;-72
2021/12/02 02:06:28;;;;;;;0.70;0.50;;;6.30;99.90;;;;;;5055975;28;20472;-72
2021/12/02 02:08:56;;;;;;;0.80;0.73;;;6.30;99.90;;;;;;5055011;28;20413;-72
2021/12/02 02:11:25;;;;;;;0.70;0.40;;;6.30;99.90;;;;;;5055454;28;20435;-72
2021/12/02 02:13:51;;;;;;;1.20;1.10;;;6.40;99.90;;;;;;5055165;28;20803;-72
2021/12/02 02:16:17;;;;;;;0.80;0.77;;;6.30;99.90;;;;;;5055086;28;20408;-72
2021/12/02 02:18:42;;;;;;;0.70;0.50;;;6.40;99.90;;;;;;5054923;28;20170;-73
2021/12/02 02:21:09;;;;;;;0.70;0.50;;;6.40;99.90;;;;;;5070442;28;20264;-72
2021/12/02 02:23:39;;;;;;;0.70;0.60;;;6.40;99.90;;;;;;5055535;28;20186;-72
2021/12/02 02:26:07;;;;;;;0.70;0.50;;;6.30;99.90;;;;;;5053575;28;20559;-73
2021/12/02 02:28:33;;;;;;;0.70;0.50;;;6.40;99.90;;;;;;5054809;28;20402;-72
2021/12/02 02:30:59;;;;;;;0.70;0.60;;;6.40;99.90;;;;;;5054379;28;20413;-72
2021/12/02 02:33:26;;;;;;;0.87;0.87;;;6.30;99.90;;;;;;5054176;28;20809;-72
2021/12/02 02:35:51;;;;;;;0.80;0.80;;;6.40;99.90;;;;;;5054064;28;20163;-72
2021/12/02 02:38:17;;;;;;;0.90;0.70;;;6.30;99.90;;;;;;5054392;28;20458;-73
2021/12/02 02:40:46;;;;;;;0.70;0.70;;;6.30;99.90;;;;;;5054287;28;20588;-72
2021/12/02 02:43:20;;;;;;;1.00;0.90;;;6.30;99.90;;;;;;5054212;28;20192;-73
2021/12/02 02:45:46;;;;;;;0.70;0.50;;;6.30;99.90;;;;;;5053539;28;20445;-72
2021/12/02 02:48:11;;;;;;;0.70;0.50;;;6.30;99.90;;;;;;5054079;28;20405;-72
2021/12/02 02:50:37;;;;;;;0.70;0.57;;;6.30;99.90;;;;;;5053796;28;20179;-73
2021/12/02 02:53:04;;;;;;;1.13;0.80;;;6.20;99.90;;;;;;5054111;28;20632;-72
2021/12/02 02:55:32;;;;;;;0.83;0.83;;;6.20;99.90;;;;;;5014382;28;1129186;-72
2021/12/02 02:58:07;;;;;;;4.60;1.63;;;6.20;99.90;;;;;;5053411;28;20545;-72
2021/12/02 03:00:37;;;;;;;0.70;0.50;;;6.10;99.90;;;;;;5054618;28;20444;-72
2021/12/02 03:05:49;;;;;;;0.70;0.50;;;6.10;99.90;;;;;;5054347;28;20445;-71
2021/12/02 03:08:19;;;;;;;0.70;0.50;;;6.10;99.90;;;;;;5053542;28;20471;-72
2021/12/02 03:10:54;;;;;;;0.70;0.50;;;6.10;99.90;;;;;;5054207;28;20441;-72
2021/12/02 03:13:23;;;;;;;0.70;0.53;;;6.10;99.90;;;;;;5054197;28;20798;-72
2021/12/02 03:18:35;;;;;;;0.70;0.60;;;6.10;99.90;;;;;;5054601;28;20407;-72
2021/12/02 03:21:00;;;;;;;0.70;0.50;;;6.10;99.90;;;;;;5052619;28;20524;-72
2021/12/02 03:23:26;;;;;;;0.70;0.40;;;6.10;99.90;;;;;;5054033;28;20174;-72
2021/12/02 03:25:52;;;;;;;0.70;0.40;;;6.10;99.90;;;;;;5051962;28;20630;-72
2021/12/02 03:28:17;;;;;;;0.70;0.50;;;6.10;99.90;;;;;;5054284;28;20170;-73
2021/12/02 03:30:43;;;;;;;0.70;0.50;;;6.10;99.90;;;;;;5054041;28;20644;-72
2021/12/02 03:33:09;;;;;;;0.70;0.50;;;6.00;99.90;;;;;;5053683;28;20166;-72
2021/12/02 03:35:35;;;;;;;0.70;0.50;;;6.00;99.90;;;;;;5053090;28;20224;-72
2021/12/02 03:38:00;;;;;;;0.70;0.50;;;5.90;99.90;;;;;;5069775;28;20202;-72
2021/12/02 03:40:26;;;;;;;0.80;0.70;;;6.00;99.90;;;;;;5069046;28;20558;-72
2021/12/02 03:42:53;;;;;;;0.70;0.50;;;6.00;99.90;;;;;;5053787;28;20182;-72
2021/12/02 03:45:23;;;;;;;1.27;1.00;;;6.00;99.90;;;;;;5053494;28;20651;-72
2021/12/02 03:47:48;;;;;;;0.60;0.40;;;5.90;99.90;;;;;;5053749;28;20394;-72
2021/12/02 03:50:14;;;;;;;0.70;0.70;;;6.00;99.90;;;;;;5053343;28;20793;-72
2021/12/02 03:52:40;;;;;;;0.70;0.60;;;6.00;99.90;;;;;;5053550;28;20166;-72
2021/12/02 03:55:06;;;;;;;0.70;0.40;;;5.90;99.90;;;;;;5053273;28;20592;-72
2021/12/02 03:57:32;;;;;;;0.90;0.50;;;6.00;99.90;;;;;;5053580;28;20197;-72
2021/12/02 03:59:59;;;;;;;0.70;0.50;;;5.90;99.90;;;;;;5053391;28;20452;-72
2021/12/02 04:02:25;;;;;;;0.70;0.50;;;6.00;99.90;;;;;;5053462;28;20403;-72
2021/12/02 04:04:50;;;;;;;0.70;0.43;;;6.00;99.90;;;;;;5052198;28;20409;-72
2021/12/02 04:07:18;;;;;;;0.70;0.50;;;5.90;99.90;;;;;;5051622;28;20465;-72
2021/12/02 04:09:45;;;;;;;0.70;0.50;;;5.90;99.90;;;;;;5058120;28;20576;-73
2021/12/02 04:12:20;;;;;;;0.70;0.50;;;5.90;99.90;;;;;;5055944;28;20525;-72
2021/12/02 04:14:58;;;;;;;0.70;0.50;;;5.90;99.90;;;;;;5054847;28;20493;-73
2021/12/02 04:17:41;;;;;;;0.70;0.60;;;5.90;99.90;;;;;;5054970;28;20397;-72
2021/12/02 04:20:14;;;;;;;0.70;0.50;;;5.90;99.90;;;;;;5054129;28;20423;-72
2021/12/02 04:22:40;;;;;;;0.93;0.93;;;5.90;99.90;;;;;;5053076;28;20429;-72
2021/12/02 04:25:07;;;;;;;0.80;0.80;;;5.80;99.90;;;;;;5053813;28;20765;-72
2021/12/02 04:27:33;;;;;;;0.70;0.50;;;5.90;99.90;;;;;;5052368;28;20410;-72
2021/12/02 04:29:59;;;;;;;0.70;0.40;;;5.80;99.90;;;;;;5053480;28;20410;-72
2021/12/02 04:32:24;;;;;;;0.70;0.50;;;5.90;99.90;;;;;;5053699;28;20766;-72
2021/12/02 04:34:50;;;;;;;0.70;0.50;;;5.80;99.90;;;;;;5053167;28;20651;-72
2021/12/02 04:37:16;;;;;;;0.70;0.43;;;5.80;99.90;;;;;;5053138;28;20171;-73
2021/12/02 04:39:41;;;;;;;0.70;0.50;;;5.80;99.90;;;;;;5053373;28;20406;-73
2021/12/02 04:42:07;;;;;;;0.70;0.50;;;5.70;99.90;;;;;;5052769;28;20284;-73
2021/12/02 04:44:33;;;;;;;0.70;0.50;;;5.70;99.90;;;;;;5053264;28;20249;-73
2021/12/02 04:46:58;;;;;;;1.13;1.00;;;5.70;99.90;;;;;;5052359;28;20277;-73
2021/12/02 04:49:24;;;;;;;0.70;0.60;;;5.70;99.90;;;;;;5052404;28;20170;-73
2021/12/02 04:51:49;;;;;;;0.70;0.50;;;5.70;99.90;;;;;;5067970;28;20277;-72
2021/12/02 04:54:15;;;;;;;1.30;0.97;;;5.60;99.90;;;;;;5052693;28;20242;-73
2021/12/02 04:56:41;;;;;;;0.70;0.50;;;5.60;99.90;;;;;;5067568;28;20190;-72
2021/12/02 04:59:06;;;;;;;0.70;0.50;;;5.70;99.90;;;;;;5051239;28;20401;-73
2021/12/02 05:01:32;;;;;;;0.70;0.40;;;5.70;99.90;;;;;;5067881;28;20206;-73
2021/12/02 05:03:58;;;;;;;0.80;0.77;;;5.60;99.90;;;;;;5052309;28;20667;-72
2021/12/02 05:06:23;;;;;;;0.80;0.50;;;5.50;99.90;;;;;;5050979;28;20198;-73
2021/12/02 05:08:49;;;;;;;0.70;0.50;;;5.50;99.90;;;;;;5052555;28;20220;-73
2021/12/02 05:11:14;;;;;;;0.70;0.50;;;5.50;99.90;;;;;;5052082;28;20186;-73
2021/12/02 05:13:40;;;;;;;0.70;0.50;;;5.50;99.90;;;;;;5052206;28;20527;-73
2021/12/02 05:16:05;;;;;;;0.70;0.40;;;5.40;99.90;;;;;;5052094;28;20225;-73
2021/12/02 05:18:31;;;;;;;0.80;0.80;;;5.40;99.90;;;;;;5052524;28;20163;-73
2021/12/02 05:20:57;;;;;;;0.70;0.50;;;5.40;99.90;;;;;;5050713;28;20198;-73
2021/12/02 05:23:23;;;;;;;0.70;0.50;;;5.40;99.90;;;;;;5052206;28;20408;-72
2021/12/02 05:25:48;;;;;;;0.70;0.50;;;5.40;99.90;;;;;;5051772;28;20448;-72
2021/12/02 05:28:18;;;;;;;0.70;0.50;;;5.40;99.90;;;;;;5050734;28;20191;-73
2021/12/02 05:30:45;;;;;;;0.70;0.47;;;5.30;99.90;;;;;;5051685;28;20561;-72
2021/12/02 05:33:10;;;;;;;0.70;0.47;;;5.30;99.90;;;;;;5051771;28;20412;-73
2021/12/02 05:35:36;;;;;;;0.70;0.50;;;5.30;99.90;;;;;;5051919;28;20412;-73
2021/12/02 05:38:02;;;;;;;0.70;0.43;;;5.30;99.90;;;;;;5052649;28;20178;-72
2021/12/02 05:40:28;;;;;;;0.70;0.50;;;5.30;99.90;;;;;;5052222;28;20556;-72
2021/12/02 05:42:53;;;;;;;0.70;0.50;;;5.20;99.90;;;;;;5052032;28;20504;-71
2021/12/02 05:45:19;;;;;;;2.40;2.30;;;5.20;99.90;;;;;;5067060;28;20197;-72
2021/12/02 05:47:44;;;;;;;0.80;0.80;;;5.30;99.90;;;;;;5051901;28;20236;-72
2021/12/02 05:50:10;;;;;;;1.03;0.93;;;5.20;99.90;;;;;;5069513;28;20191;-72
2021/12/02 05:52:35;;;;;;;0.70;0.40;;;5.20;99.90;;;;;;5071110;28;20174;-72
2021/12/02 05:55:01;;;;;;;0.70;0.50;;;5.30;99.90;;;;;;5055147;28;20203;-72
2021/12/02 05:57:27;;;;;;;0.70;0.50;;;5.30;99.90;;;;;;5071005;28;20212;-72
2021/12/02 05:59:52;;;;;;;0.70;0.40;;;5.30;99.90;;;;;;5070823;28;20231;-72
2021/12/02 06:02:18;;;;;;;0.70;0.40;;;5.30;99.90;;;;;;5055500;28;20633;-72
2021/12/02 06:04:45;;;;;;;0.70;0.50;;;5.30;99.90;;;;;;5055166;28;20832;-72
2021/12/02 06:07:11;;;;;;;0.70;0.40;;;5.30;99.90;;;;;;5054907;28;20241;-72
2021/12/02 06:09:36;;;;;;;0.70;0.40;;;5.20;99.90;;;;;;5055073;28;20405;-73
2021/12/02 06:12:02;;;;;;;0.70;0.50;;;5.20;99.90;;;;;;5054987;28;20183;-73
2021/12/02 06:14:28;;;;;;;0.97;0.90;;;5.20;99.90;;;;;;5054913;28;20229;-72
2021/12/02 06:16:53;;;;;;;0.70;0.50;;;5.10;99.90;;;;;;5051154;28;20175;-72
2021/12/02 06:19:19;;;;;;;0.70;0.50;;;5.10;99.90;;;;;;5055123;28;20632;-73
2021/12/02 06:21:44;;;;;;;0.70;0.50;;;5.10;99.90;;;;;;5055002;28;20198;-73
2021/12/02 06:24:10;;;;;;;0.70;0.50;;;5.10;99.90;;;;;;5070213;28;20225;-73
2021/12/02 06:26:37;;;;;;;0.80;0.67;;;5.10;99.90;;;;;;5054525;28;20190;-73
2021/12/02 06:29:03;;;;;;;0.70;0.50;;;5.10;99.90;;;;;;5054706;28;20225;-73
2021/12/02 06:31:29;;;;;;;0.70;0.50;;;5.10;99.90;;;;;;5054905;28;20795;-73
2021/12/02 06:33:54;;;;;;;0.70;0.50;;;5.00;99.90;;;;;;5054624;28;20401;-73
2021/12/02 06:36:20;;;;;;;2.00;1.07;;;5.00;99.90;;;;;;5069924;28;20261;-72
2021/12/02 06:38:45;;;;;;;0.70;0.50;;;5.00;99.90;;;;;;5054555;28;20644;-72
2021/12/02 06:41:11;;;;;;;0.70;0.50;;;5.10;99.90;;;;;;5069788;28;20190;-73
2021/12/02 06:43:36;;;;;;;1.33;0.73;;;5.10;99.90;;;;;;5054411;28;20167;-73
2021/12/02 06:46:02;;;;;;;0.70;0.50;;;5.10;99.90;;;;;;5052658;28;20277;-72
2021/12/02 06:48:28;;;;;;;0.70;0.40;;;5.10;99.90;;;;;;5054450;28;20159;-73
2021/12/02 06:50:53;;;;;;;0.70;0.60;;;5.00;99.90;;;;;;5054600;28;20183;-72
2021/12/02 06:53:19;;;;;;;0.70;0.40;;;5.00;99.90;;;;;;5054540;28;20185;-72
2021/12/02 06:55:45;;;;;;;1.27;1.17;;;5.00;99.90;;;;;;5054125;28;20274;-73
2021/12/02 06:58:11;;;;;;;0.70;0.70;;;5.00;99.90;;;;;;5054333;28;20493;-72
2021/12/02 07:00:36;;;;;;;0.70;0.50;;;5.00;99.90;;;;;;5053099;28;20190;-73
2021/12/02 07:03:02;;;;;;;0.70;0.47;;;5.00;99.90;;;;;;5054066;28;20173;-73
2021/12/02 07:05:30;;;;;;;0.70;0.40;;;5.10;99.90;;;;;;5053949;28;20221;-72
2021/12/02 07:07:56;;;;;;;0.70;0.50;;;5.10;99.90;;;;;;5054653;28;20809;-73
2021/12/02 07:10:24;;;;;;;0.70;0.50;;;5.00;99.90;;;;;;5051879;28;20851;-73
2021/12/02 07:12:54;;;;;;;0.70;0.50;;;5.00;99.90;;;;;;5052724;28;20447;-72
2021/12/02 07:15:25;;;;;;;0.70;0.50;;;5.00;99.90;;;;;;5053550;28;20539;-72
2021/12/02 07:17:56;;;;;;;0.83;0.83;;;5.00;99.90;;;;;;5054014;28;20834;-73
2021/12/02 07:20:22;;;;;;;0.90;0.80;;;4.90;99.90;;;;;;5035115;28;20492;-73
2021/12/02 07:22:48;;;;;;;0.70;0.50;;;4.90;99.90;;;;;;5034797;28;20406;-73
2021/12/02 07:25:13;;;;;;;0.70;0.50;;;5.00;99.90;;;;;;5034665;28;20411;-72
2021/12/02 07:27:39;;;;;;;0.70;0.40;;;4.90;99.90;;;;;;5067142;28;20164;-73
2021/12/02 07:30:07;;;;;;;1.73;1.53;;;4.90;99.90;;;;;;5036676;28;20164;-73
2021/12/02 07:32:39;;;;;;;0.70;0.50;;;4.90;99.90;;;;;;5036388;28;20395;-73
2021/12/02 07:35:09;;;;;;;0.70;0.60;;;4.90;99.90;;;;;;5034722;28;20398;-72
2021/12/02 07:37:35;;;;;;;0.70;0.40;;;4.90;99.90;;;;;;5033095;28;20403;-73
2021/12/02 07:40:02;;;;;;;0.70;0.40;;;4.80;99.90;;;;;;5065992;28;20509;-73
2021/12/02 07:42:28;;;;;;;0.70;0.50;;;4.80;99.90;;;;;;5034399;28;20160;-72
2021/12/02 07:44:55;;;;;;;0.70;0.50;;;4.90;99.90;;;;;;5032751;28;20403;-71
2021/12/02 07:47:20;;;;;;;0.70;0.50;;;4.80;99.90;;;;;;5032816;28;20465;-72
2021/12/02 07:49:49;;;;;;;0.70;0.50;;;4.80;99.90;;;;;;5032902;28;20399;-72
2021/12/02 07:52:23;;;;;;;0.70;0.50;;;4.80;99.90;;;;;;5032731;28;20194;-72
2021/12/02 07:54:51;;;;;;;0.70;0.40;;;4.80;99.90;;;;;;5032585;28;20410;-72
2021/12/02 07:57:17;;;;;;;0.70;0.50;;;4.90;99.90;;;;;;5032644;28;20568;-73
2021/12/02 07:59:43;;;;;;;0.70;0.50;;;4.80;99.90;;;;;;5033301;28;21044;-73
2021/12/02 08:02:14;;;;;;;0.70;0.50;;;4.80;99.90;;;;;;5066010;28;20454;-73
2021/12/02 08:04:39;;;;;;;0.70;0.47;;;4.80;99.90;;;;;;5033969;28;20172;-72
2021/12/02 08:07:05;;;;;;;0.70;0.50;;;4.80;99.90;;;;;;5033818;28;20454;-72
2021/12/02 08:09:30;;;;;;;0.70;0.40;;;4.80;99.90;;;;;;5033840;28;20250;-73
2021/12/02 08:11:59;;;;;;;1.33;1.17;;;4.80;99.90;;;;;;5065214;28;20188;-73
2021/12/02 08:14:24;;;;;;;1.10;1.00;;;4.80;99.90;;;;;;5032356;28;20564;-73
2021/12/02 08:16:50;;;;;;;0.70;0.40;;;4.80;99.90;;;;;;5048926;28;20413;-73
2021/12/02 08:19:16;;;;;;;0.70;0.50;;;4.80;99.90;;;;;;5033681;28;20167;-73
2021/12/02 08:21:41;;;;;;;0.70;0.50;;;4.80;99.90;;;;;;5065447;28;20222;-73
2021/12/02 08:24:07;;;;;;;1.17;1.00;;;4.80;99.90;;;;;;5033400;28;20179;-72
2021/12/02 08:26:33;;;;;;;0.70;0.60;;;4.80;99.90;;;;;;5033084;28;20552;-72
2021/12/02 08:29:00;;;;;;;0.70;0.50;;;4.90;99.90;;;;;;5033396;28;20171;-73
2021/12/02 08:31:25;;;;;;;0.70;0.47;;;4.80;99.90;;;;;;5033347;28;20426;-73
2021/12/02 08:33:52;;;;;;;0.70;0.50;;;4.90;99.90;;;;;;5035121;28;20409;-73
2021/12/02 08:36:22;;;;;;;2.97;1.83;;;4.90;99.90;;;;;;5033686;28;20210;-73
2021/12/02 08:38:48;;;;;;;0.70;0.63;;;5.00;99.90;;;;;;5032837;28;20414;-73
2021/12/02 08:41:18;;;;;;;1.33;1.23;;;5.00;99.90;;;;;;5032803;28;20430;-73
2021/12/02 08:43:43;;;;;;;0.70;0.50;;;5.10;99.90;;;;;;5047541;28;20479;-72
2021/12/02 08:46:09;;;;;;;3.60;1.40;;;5.20;99.90;;;;;;5031696;28;20445;-72
2021/12/02 08:48:34;;;;;;;0.70;0.60;;;5.20;99.90;;;;;;5031899;28;20666;-72
2021/12/02 08:51:00;;;;;;;0.70;0.50;;;5.30;99.90;;;;;;5031727;28;20607;-72
2021/12/02 08:53:25;;;;;;;0.70;0.40;;;5.30;99.90;;;;;;5032017;28;20214;-72
2021/12/02 08:55:51;;;;;;;0.70;0.50;;;5.30;99.90;;;;;;5032432;28;20271;-73
2021/12/02 08:58:17;;;;;;;0.70;0.40;;;5.20;99.90;;;;;;5033422;28;20172;-73
2021/12/02 09:00:43;;;;;;;0.70;0.50;;;5.20;99.90;;;;;;5033293;28;20531;-73
2021/12/02 09:03:12;;;;;;;0.70;0.50;;;5.10;99.90;;;;;;5048800;28;20441;-73
2021/12/02 09:05:39;;;;;;;1.53;1.27;;;5.20;99.90;;;;;;5031645;28;20203;-73
2021/12/02 09:08:05;;;;;;;0.70;0.43;;;5.30;99.90;;;;;;5035237;28;20406;-73
2021/12/02 09:10:31;;;;;;;0.70;0.50;;;5.30;99.90;;;;;;5034173;28;20455;-74
2021/12/02 09:12:56;;;;;;;0.80;0.60;;;5.30;99.90;;;;;;5034716;28;20465;-73
2021/12/02 09:15:23;;;;;;;0.70;0.40;;;5.40;99.90;;;;;;5034657;28;20402;-73
2021/12/02 09:17:49;;;;;;;0.70;0.50;;;5.40;99.90;;;;;;5033454;28;20174;-73
2021/12/02 09:20:16;;;;;;;0.70;0.60;;;5.50;99.90;;;;;;5035585;28;20775;-73
2021/12/02 09:22:44;;;;;;;0.70;0.50;;;5.40;99.90;;;;;;5034416;28;20522;-73
2021/12/02 09:25:10;;;;;;;0.70;0.50;;;5.40;99.90;;;;;;5036735;28;20758;-73
2021/12/02 09:27:36;;;;;;;0.73;0.57;;;5.50;99.90;;;;;;5037784;28;20418;-74
2021/12/02 09:30:03;;;;;;;1.77;0.70;;;5.60;99.90;;;;;;5038874;28;20437;-73
2021/12/02 09:32:29;;;;;;;0.70;0.50;;;5.80;99.90;;;;;;5038517;28;20550;-73
2021/12/02 09:34:54;;;;;;;0.70;0.50;;;6.10;99.90;;;;;;5038020;28;20405;-73
2021/12/02 09:37:20;;;;;;;0.70;0.50;;;6.70;99.90;;;;;;5037589;28;20175;-73
2021/12/02 09:39:46;;;;;;;0.70;0.50;;;7.10;99.90;;;;;;5037287;28;20644;-73
2021/12/02 09:42:11;;;;;;;0.70;0.70;;;7.80;99.90;;;;;;5037163;28;20187;-73
2021/12/02 09:44:38;;;;;;;0.70;0.50;;;8.50;99.90;;;;;;5036882;28;20301;-73
2021/12/02 09:47:05;;;;;;;0.70;0.50;;;9.10;99.90;;;;;;5035744;28;20677;-73
2021/12/02 09:49:31;;;;;;;0.80;0.80;;;9.00;99.90;;;;;;5036365;28;20489;-74
2021/12/02 09:52:03;;;;;;;0.70;0.50;;;8.70;99.90;;;;;;5036489;28;20430;-74
2021/12/02 09:54:36;;;;;;;0.70;0.60;;;8.20;99.90;;;;;;5036381;28;20406;-73
2021/12/02 09:57:05;;;;;;;0.70;0.47;;;7.80;99.90;;;;;;5035928;28;20436;-73
2021/12/02 10:02:02;;;;;;;6.00;1.20;;;7.20;99.90;;;;;;5035602;28;20437;-72
2021/12/02 10:04:29;;;;;;;0.70;0.50;;;6.90;99.90;;;;;;5034876;28;20168;-72
2021/12/02 10:07:21;;;;;;;0.90;0.70;;;7.20;99.90;;;;;;5033271;28;20454;-72
2021/12/02 10:12:44;;;;;;;0.70;0.67;;;9.90;99.90;;;;;;5034931;28;20403;-73
2021/12/02 10:15:13;;;;;;;1.70;1.20;;;11.00;99.90;;;;;;5034448;28;20456;-72
2021/12/02 10:17:45;;;;;;;0.70;0.50;;;11.40;99.90;;;;;;5050022;28;20438;-73
2021/12/02 10:22:41;;;;;;;0.80;0.50;;;12.20;99.90;;;;;;5034573;28;20504;-73
2021/12/02 10:25:08;;;;;;;1.37;1.27;;;12.90;99.90;;;;;;5034325;28;20406;-73
2021/12/02 10:27:33;;;;;;;0.80;0.57;;;13.00;99.90;;;;;;5035693;28;20446;-74
2021/12/02 10:29:59;;;;;;;0.70;0.50;;;13.80;99.90;;;;;;5035539;28;20502;-73
2021/12/02 10:32:30;;;;;;;0.70;0.60;;;14.50;99.90;;;;;;5035434;28;20162;-71
2021/12/02 10:35:02;;;;;;;0.70;0.50;;;15.30;99.90;;;;;;5034956;28;20170;-73
2021/12/02 10:37:34;;;;;;;0.70;0.50;;;15.80;92.80;;;;;;5034302;28;20407;-73
2021/12/02 10:40:10;;;;;;;1.33;1.23;;;16.40;90.50;;;;;;5035245;28;20440;-73
2021/12/02 10:42:40;;;;;;;0.70;0.50;;;15.80;77.90;;;;;;5034380;28;20504;-73
2021/12/02 10:45:07;;;;;;;0.93;0.70;;;15.90;78.30;;;;;;5034029;28;20411;-73
2021/12/02 10:47:36;;;;;;;0.80;0.60;;;15.80;82.60;;;;;;5034062;28;20527;-73
2021/12/02 10:50:09;;;;;;;0.80;0.70;;;15.90;81.80;;;;;;5033940;28;20457;-73
2021/12/02 10:52:36;;;;;;;0.70;0.60;;;16.20;79.10;;;;;;5033993;28;20402;-73
2021/12/02 10:55:07;;;;;;;0.90;0.60;;;16.70;73.70;;;;;;5033514;28;20398;-71
2021/12/02 10:57:35;;;;;;;0.70;0.50;;;17.00;73.60;;;;;;5049303;28;20445;-71
2021/12/02 11:00:13;;;;;;;0.80;0.60;;;17.50;70.80;;;;;;5033741;28;21075;-72
2021/12/02 11:02:48;;;;;;;0.70;0.50;;;17.40;67.30;;;;;;5033841;28;20398;-72
2021/12/02 11:05:26;;;;;;;0.70;0.50;;;18.10;66.50;;;;;;5034561;28;20552;-72
2021/12/02 11:07:57;;;;;;;0.70;0.50;;;19.00;63.40;;;;;;5035489;28;20413;-72
2021/12/02 11:10:25;;;;;;;0.70;0.60;;;18.50;59.30;;;;;;5035532;28;20802;-72
2021/12/02 11:12:53;;;;;;;0.70;0.60;;;18.60;60.70;;;;;;5035261;28;20402;-72
2021/12/02 11:15:27;;;;;;;0.80;0.73;;;18.30;58.80;;;;;;5034813;28;20410;-72
2021/12/02 11:18:02;;;;;;;0.70;0.60;;;17.70;60.30;;;;;;5039280;28;20911;-72
2021/12/02 11:20:30;;;;;;;0.70;0.50;;;16.30;61.40;;;;;;5054236;28;20429;-72
2021/12/02 11:23:05;;;;;;;0.70;0.50;;;14.60;80.60;;;;;;5038693;28;20774;-73
2021/12/02 11:25:34;;;;;;;0.70;0.50;;;13.70;99.90;;;;;;5038467;28;20457;-73
2021/12/02 11:28:08;;;;;;;0.70;0.50;;;14.10;99.90;;;;;;5038909;28;20474;-73
2021/12/02 11:30:36;;;;;;;9.37;8.53;;;14.90;99.90;;;;;;5037816;28;20418;-73
2021/12/02 11:33:04;;;;;;;2.73;1.83;;;16.50;94.60;;;;;;5038469;28;20409;-73
2021/12/02 11:35:36;;;;;;;1.37;1.27;;;16.10;76.90;;;;;;5038972;28;20501;-74
2021/12/02 11:38:08;;;;;;;7.60;4.57;;;15.10;90.10;;;;;;5038156;28;20911;-73
2021/12/02 11:40:43;;;;;;;3.90;3.47;;;13.90;99.50;;;;;;5038709;28;20943;-73
2021/12/02 11:43:12;;;;;;;1.07;0.87;;;12.70;99.90;;;;;;5071520;28;20468;-73
2021/12/02 11:45:46;;;;;;;2.50;2.40;;;11.80;99.90;;;;;;5036728;28;20461;-73
2021/12/02 11:48:18;;;;;;;0.70;0.60;;;11.00;99.90;;;;;;5037848;28;20409;-73
2021/12/02 11:50:44;;;;;;;0.80;0.77;;;11.60;99.90;;;;;;5037282;28;20437;-73
2021/12/02 11:53:11;;;;;;;0.70;0.60;;;12.20;99.90;;;;;;5039010;28;20407;-73
2021/12/02 11:55:42;;;;;;;0.80;0.80;;;12.90;99.90;;;;;;5038536;28;20828;-73
2021/12/02 11:58:09;;;;;;;0.70;0.60;;;13.00;99.90;;;;;;5040171;28;20406;-73
2021/12/02 12:00:36;;;;;;;0.70;0.50;;;12.70;99.90;;;;;;5032099;28;20434;-73
2021/12/02 12:03:07;;;;;;;0.97;0.97;;;13.90;99.90;;;;;;5032639;28;20770;-72
2021/12/02 12:05:39;;;;;;;0.80;0.73;;;14.50;99.90;;;;;;5032408;28;20454;-73
2021/12/02 12:08:05;;;;;;;0.70;0.53;;;15.70;92.90;;;;;;5032899;28;20481;-73
2021/12/02 12:10:39;;;;;;;2.17;0.70;;;17.30;74.80;;;;;;5033991;28;20572;-73
2021/12/02 12:13:11;;;;;;;1.10;0.97;;;17.90;66.80;;;;;;5032367;28;20441;-73
2021/12/02 12:15:41;;;;;;;1.53;1.43;;;17.00;64.30;;;;;;5033488;28;20418;-73
2021/12/02 12:18:08;;;;;;;0.70;0.50;;;15.70;66.40;;;;;;5033584;28;20410;-73
2021/12/02 12:20:55;;;;;;;0.87;0.70;;;14.00;76.30;;;;;;5033338;28;20448;-73
2021/12/02 12:23:43;;;;;;;0.70;0.50;;;12.50;99.90;;;;;;5033375;28;20402;-73
2021/12/02 12:26:16;;;;;;;0.70;0.50;;;11.40;99.90;;;;;;5033255;28;20706;-73
2021/12/02 12:29:07;;;;;;;0.70;0.50;;;10.80;99.90;;;;;;5033654;28;20987;-73
2021/12/02 12:31:50;;;;;;;0.70;0.50;;;10.00;99.90;;;;;;5033831;28;20876;-72
2021/12/02 12:34:36;;;;;;;0.90;0.67;;;10.10;99.90;;;;;;5034005;28;20432;-72
2021/12/02 12:37:35;;;;;;;4.30;1.37;;;10.00;99.90;;;;;;5065722;28;20420;-73
2021/12/02 12:40:16;;;;;;;0.70;0.50;;;9.60;99.90;;;;;;5031822;28;20450;-73
2021/12/02 12:42:46;;;;;;;0.70;0.50;;;9.70;99.90;;;;;;5049694;28;20795;-73
2021/12/02 12:45:38;;;;;;;0.70;0.50;;;9.40;99.90;;;;;;5033857;28;20426;-73
2021/12/02 12:48:06;;;;;;;0.70;0.50;;;9.30;99.90;;;;;;5033520;28;20407;-73
2021/12/02 12:50:44;;;;;;;0.70;0.50;;;9.10;99.90;;;;;;5033734;28;20418;-73
2021/12/02 12:53:15;;;;;;;0.70;0.50;;;8.80;99.90;;;;;;5032667;28;20406;-72
2021/12/02 12:55:43;;;;;;;0.70;0.50;;;8.70;99.90;;;;;;5033423;28;20426;-73
2021/12/02 12:58:17;;;;;;;0.83;0.73;;;8.60;99.90;;;;;;5037694;28;20489;-73
2021/12/02 13:00:48;;;;;;;0.70;0.60;;;8.60;99.90;;;;;;5041923;28;20612;-73
2021/12/02 13:03:19;;;;;;;0.70;0.50;;;8.50;99.90;;;;;;5073623;28;20453;-73
2021/12/02 13:05:57;;;;;;;0.70;0.50;;;8.40;99.90;;;;;;5040514;28;20449;-73
2021/12/02 13:08:25;;;;;;;0.70;0.50;;;8.30;99.90;;;;;;5040984;28;20914;-73
2021/12/02 13:10:52;;;;;;;0.70;0.50;;;8.10;99.90;;;;;;5041725;28;20954;-73
2021/12/02 13:13:31;;;;;;;0.80;0.63;;;8.00;99.90;;;;;;5073663;28;20414;-73
2021/12/02 13:16:07;;;;;;;0.80;0.70;;;8.00;99.90;;;;;;5042139;28;20406;-73
2021/12/02 13:18:36;;;;;;;0.70;0.60;;;7.90;99.90;;;;;;5042627;28;20402;-73